createdAt,value
2019-04-25T00:00:18.402Z,1000.79
2019-04-25T00:01:18.392Z,1000.76
2019-04-25T00:02:18.446Z,1000.92
2019-04-25T00:03:18.424Z,1000.93
2019-04-25T00:04:18.358Z,1000.93
2019-04-25T00:05:18.363Z,1000.76
2019-04-25T00:06:18.346Z,1000.70
2019-04-25T00:07:18.386Z,1000.70
2019-04-25T00:08:18.322Z,1000.74
2019-04-25T00:09:18.305Z,1000.78
2019-04-25T00:10:18.301Z,1000.93
2019-04-25T00:11:18.336Z,1001.08
2019-04-25T00:12:18.304Z,1001.03
2019-04-25T00:13:18.296Z,1001.05
2019-04-25T00:14:18.282Z,1001.00
2019-04-25T00:15:18.236Z,1001.05
2019-04-25T00:16:18.229Z,1001.11
2019-04-25T00:17:18.208Z,1001.12
2019-04-25T00:18:18.240Z,1001.14
2019-04-25T00:19:18.222Z,1001.15
2019-04-25T00:20:18.214Z,1001.15
2019-04-25T00:21:18.168Z,1001.14
2019-04-25T00:22:18.182Z,1001.10
2019-04-25T00:23:18.176Z,1001.09
2019-04-25T00:24:18.147Z,1001.11
2019-04-25T00:25:18.198Z,1001.09
2019-04-25T00:26:18.111Z,1001.06
2019-04-25T00:27:18.102Z,1001.10
2019-04-25T00:28:18.108Z,1001.11
2019-04-25T00:29:18.076Z,1001.06
2019-04-25T00:30:18.080Z,1001.12
2019-04-25T00:31:18.054Z,1001.16
2019-04-25T00:32:18.047Z,1001.16
2019-04-25T00:33:18.086Z,1001.23
2019-04-25T00:34:18.059Z,1001.22
2019-04-25T00:35:18.021Z,1001.18
2019-04-25T00:36:18.003Z,1001.24
2019-04-25T00:37:17.995Z,1001.24
2019-04-25T00:38:17.983Z,1001.21
2019-04-25T00:39:17.988Z,1001.20
2019-04-25T00:40:17.958Z,1001.20
2019-04-25T00:41:17.972Z,1001.18
2019-04-25T00:42:17.937Z,1001.22
2019-04-25T00:43:17.917Z,1001.25
2019-04-25T00:44:17.941Z,1001.29
2019-04-25T00:45:17.898Z,1001.28
2019-04-25T00:46:17.895Z,1001.18
2019-04-25T00:47:17.877Z,1001.10
2019-04-25T00:48:17.882Z,1001.05
2019-04-25T00:49:17.911Z,1000.96
2019-04-25T00:50:17.843Z,1000.93
2019-04-25T00:51:17.833Z,1000.93
2019-04-25T00:52:17.823Z,1000.95
2019-04-25T00:53:17.821Z,1001.03
2019-04-25T00:54:17.833Z,1001.09
2019-04-25T00:55:26.823Z,1001.16
2019-04-25T00:56:18.773Z,1001.13
2019-04-25T00:57:17.769Z,1001.28
2019-04-25T00:58:17.759Z,1001.26
2019-04-25T00:59:17.789Z,1001.27
2019-04-25T01:00:17.743Z,1001.25
2019-04-25T01:01:17.725Z,1001.15
2019-04-25T01:02:17.709Z,1001.12
2019-04-25T01:03:17.702Z,1001.16
2019-04-25T01:04:17.713Z,1001.18
2019-04-25T01:05:17.694Z,1001.23
2019-04-25T01:06:17.669Z,1001.22
2019-04-25T01:07:17.654Z,1001.22
2019-04-25T01:08:17.644Z,1001.24
2019-04-25T01:09:17.632Z,1001.20
2019-04-25T01:10:17.660Z,1001.24
2019-04-25T01:11:17.613Z,1001.29
2019-04-25T01:12:17.599Z,1001.39
2019-04-25T01:13:17.583Z,1001.35
2019-04-25T01:14:17.578Z,1001.32
2019-04-25T01:15:17.603Z,1001.32
2019-04-25T01:16:17.551Z,1001.30
2019-04-25T01:17:17.553Z,1001.36
2019-04-25T01:18:17.529Z,1001.35
2019-04-25T01:19:17.541Z,1001.37
2019-04-25T01:20:17.525Z,1001.38
2019-04-25T01:21:17.502Z,1001.36
2019-04-25T01:22:17.497Z,1001.36
2019-04-25T01:23:17.495Z,1001.36
2019-04-25T01:24:17.477Z,1001.41
2019-04-25T01:25:17.481Z,1001.43
2019-04-25T01:26:17.442Z,1001.38
2019-04-25T01:27:17.438Z,1001.37
2019-04-25T01:28:17.420Z,1001.39
2019-04-25T01:29:17.411Z,1001.44
2019-04-25T01:30:17.486Z,1001.46
2019-04-25T01:31:17.394Z,1001.49
2019-04-25T01:32:17.384Z,1001.46
2019-04-25T01:33:17.364Z,1001.42
2019-04-25T01:34:17.355Z,1001.44
2019-04-25T01:35:17.376Z,1001.42
2019-04-25T01:36:17.332Z,1001.36
2019-04-25T01:37:17.341Z,1001.38
2019-04-25T01:38:17.327Z,1001.41
2019-04-25T01:39:17.303Z,1001.46
2019-04-25T01:40:17.286Z,1001.42
2019-04-25T01:41:17.297Z,1001.39
2019-04-25T01:42:17.326Z,1001.37
2019-04-25T01:43:17.256Z,1001.36
2019-04-25T01:44:17.268Z,1001.32
2019-04-25T01:45:17.230Z,1001.31
2019-04-25T01:46:17.240Z,1001.38
2019-04-25T01:47:17.228Z,1001.31
2019-04-25T01:48:17.196Z,1001.28
2019-04-25T01:49:17.359Z,1001.23
2019-04-25T01:50:17.188Z,1001.25
2019-04-25T01:51:17.210Z,1001.31
2019-04-25T01:52:17.146Z,1001.33
2019-04-25T01:53:17.188Z,1001.35
2019-04-25T01:54:17.131Z,1001.47
2019-04-25T01:55:17.138Z,1001.52
2019-04-25T01:56:17.164Z,1001.47
2019-04-25T01:57:17.099Z,1001.47
2019-04-25T01:58:17.093Z,1001.54
2019-04-25T01:59:17.083Z,1001.52
2019-04-25T02:00:17.077Z,1001.57
2019-04-25T02:01:17.062Z,1001.54
2019-04-25T02:02:17.062Z,1001.52
2019-04-25T02:03:17.034Z,1001.54
2019-04-25T02:04:17.026Z,1001.44
2019-04-25T02:05:17.005Z,1001.43
2019-04-25T02:06:17.044Z,1001.39
2019-04-25T02:07:17.006Z,1001.41
2019-04-25T02:08:16.970Z,1001.39
2019-04-25T02:09:16.979Z,1001.40
2019-04-25T02:10:16.952Z,1001.32
2019-04-25T02:11:16.940Z,1001.31
2019-04-25T02:12:16.954Z,1001.32
2019-04-25T02:13:16.914Z,1001.26
2019-04-25T02:14:16.906Z,1001.27
2019-04-25T02:15:16.946Z,1001.23
2019-04-25T02:16:16.882Z,1001.24
2019-04-25T02:17:16.887Z,1001.16
2019-04-25T02:18:16.860Z,1001.23
2019-04-25T02:19:16.882Z,1001.25
2019-04-25T02:20:16.888Z,1001.23
2019-04-25T02:21:16.911Z,1001.25
2019-04-25T02:22:16.950Z,1001.25
2019-04-25T02:23:16.807Z,1001.32
2019-04-25T02:24:16.788Z,1001.41
2019-04-25T02:25:16.784Z,1001.61
2019-04-25T02:26:18.629Z,1001.65
2019-04-25T02:27:16.767Z,1001.69
2019-04-25T02:28:16.768Z,1001.75
2019-04-25T02:29:16.751Z,1001.74
2019-04-25T02:30:16.734Z,1001.81
2019-04-25T02:31:18.413Z,1001.84
2019-04-25T02:32:16.703Z,1001.85
2019-04-25T02:33:16.724Z,1001.88
2019-04-25T02:34:18.128Z,1001.88
2019-04-25T02:35:16.694Z,1001.93
2019-04-25T02:36:16.657Z,1001.92
2019-04-25T02:37:16.657Z,1002.09
2019-04-25T02:38:17.152Z,1002.06
2019-04-25T02:39:16.627Z,1002.08
2019-04-25T02:40:16.617Z,1002.11
2019-04-25T02:41:16.600Z,1002.14
2019-04-25T02:42:17.098Z,1002.19
2019-04-25T02:43:16.657Z,1002.25
2019-04-25T02:44:16.576Z,1002.25
2019-04-25T02:45:16.769Z,1002.25
2019-04-25T02:46:16.559Z,1002.29
2019-04-25T02:47:16.536Z,1002.35
2019-04-25T02:48:16.549Z,1002.36
2019-04-25T02:49:29.275Z,1002.33
2019-04-25T02:50:17.542Z,1002.35
2019-04-25T02:51:16.502Z,1002.35
2019-04-25T02:52:18.036Z,1002.36
2019-04-25T02:53:16.508Z,1002.43
2019-04-25T02:54:16.459Z,1002.48
2019-04-25T02:55:31.132Z,1002.48
2019-04-25T02:56:30.428Z,1002.44
2019-04-25T02:57:17.421Z,1002.30
2019-04-25T02:58:16.410Z,1002.30
2019-04-25T02:59:16.421Z,1002.23
2019-04-25T03:00:16.388Z,1002.20
2019-04-25T03:01:22.281Z,1002.12
2019-04-25T03:02:17.368Z,1002.12
2019-04-25T03:03:16.369Z,1002.06
2019-04-25T03:04:16.369Z,1002.08
2019-04-25T03:05:16.356Z,1002.04
2019-04-25T03:06:16.378Z,1002.07
2019-04-25T03:07:17.590Z,1002.06
2019-04-25T03:08:16.313Z,1002.09
2019-04-25T03:09:16.335Z,1002.13
2019-04-25T03:10:16.276Z,1002.18
2019-04-25T03:11:16.266Z,1002.26
2019-04-25T03:12:29.168Z,1002.27
2019-04-25T03:13:17.263Z,1002.28
2019-04-25T03:14:16.255Z,1002.33
2019-04-25T03:15:16.233Z,1002.42
2019-04-25T03:16:16.234Z,1002.41
2019-04-25T03:17:16.211Z,1002.39
2019-04-25T03:18:16.186Z,1002.42
2019-04-25T03:19:16.212Z,1002.44
2019-04-25T03:20:16.207Z,1002.47
2019-04-25T03:21:17.504Z,1002.53
2019-04-25T03:22:16.136Z,1002.48
2019-04-25T03:23:16.177Z,1002.51
2019-04-25T03:24:16.940Z,1002.53
2019-04-25T03:25:17.486Z,1002.55
2019-04-25T03:26:16.089Z,1002.50
2019-04-25T03:27:16.085Z,1002.51
2019-04-25T03:28:16.080Z,1002.52
2019-04-25T03:29:16.072Z,1002.54
2019-04-25T03:30:17.866Z,1002.54
2019-04-25T03:31:22.722Z,1002.61
2019-04-25T03:32:19.769Z,1002.58
2019-04-25T03:33:19.623Z,1002.58
2019-04-25T03:34:20.369Z,1002.56
2019-04-25T03:35:16.061Z,1002.60
2019-04-25T03:36:17.070Z,1002.62
2019-04-25T03:37:15.971Z,1002.59
2019-04-25T03:38:15.970Z,1002.61
2019-04-25T03:39:16.531Z,1002.62
2019-04-25T03:40:16.021Z,1002.68
2019-04-25T03:41:15.933Z,1002.64
2019-04-25T03:42:15.917Z,1002.70
2019-04-25T03:43:15.913Z,1002.75
2019-04-25T03:44:15.897Z,1002.72
2019-04-25T03:45:15.907Z,1002.69
2019-04-25T03:46:15.901Z,1002.66
2019-04-25T03:47:15.875Z,1002.74
2019-04-25T03:48:15.846Z,1002.75
2019-04-25T03:49:15.842Z,1002.81
2019-04-25T03:50:15.843Z,1002.87
2019-04-25T03:51:15.870Z,1002.81
2019-04-25T03:52:15.823Z,1002.84
2019-04-25T03:53:15.804Z,1002.79
2019-04-25T03:54:15.782Z,1002.84
2019-04-25T03:55:15.793Z,1002.84
2019-04-25T03:56:15.781Z,1002.89
2019-04-25T03:57:15.756Z,1002.92
2019-04-25T03:58:15.739Z,1002.90
2019-04-25T03:59:16.102Z,1002.96
2019-04-25T04:00:15.721Z,1003.03
2019-04-25T04:01:15.777Z,1002.98
2019-04-25T04:02:15.717Z,1003.00
2019-04-25T04:03:15.680Z,1003.02
2019-04-25T04:04:16.231Z,1003.03
2019-04-25T04:05:15.664Z,1003.12
2019-04-25T04:06:15.762Z,1003.05
2019-04-25T04:07:15.954Z,1003.12
2019-04-25T04:08:15.896Z,1003.18
2019-04-25T04:09:15.622Z,1003.12
2019-04-25T04:10:15.640Z,1003.16
2019-04-25T04:11:15.764Z,1003.15
2019-04-25T04:12:15.785Z,1003.20
2019-04-25T04:13:15.911Z,1003.24
2019-04-25T04:14:15.812Z,1003.28
2019-04-25T04:15:15.988Z,1003.32
2019-04-25T04:16:15.777Z,1003.36
2019-04-25T04:17:16.065Z,1003.37
2019-04-25T04:18:17.252Z,1003.47
2019-04-25T04:19:15.844Z,1003.50
2019-04-25T04:20:15.997Z,1003.48
2019-04-25T04:21:16.175Z,1003.51
2019-04-25T04:22:16.248Z,1003.54
2019-04-25T04:23:15.463Z,1003.55
2019-04-25T04:24:16.069Z,1003.55
2019-04-25T04:25:15.955Z,1003.63
2019-04-25T04:26:15.716Z,1003.66
2019-04-25T04:27:15.872Z,1003.71
2019-04-25T04:28:16.012Z,1003.72
2019-04-25T04:29:16.379Z,1003.74
2019-04-25T04:30:15.433Z,1003.79
2019-04-25T04:31:15.487Z,1003.78
2019-04-25T04:32:16.319Z,1003.78
2019-04-25T04:33:26.679Z,1003.77
2019-04-25T04:34:17.015Z,1003.78
2019-04-25T04:35:16.166Z,1003.79
2019-04-25T04:36:17.737Z,1003.84
2019-04-25T04:37:16.171Z,1003.87
2019-04-25T04:38:16.383Z,1003.90
2019-04-25T04:39:16.850Z,1003.91
2019-04-25T04:40:17.244Z,1003.91
2019-04-25T04:41:16.323Z,1003.99
2019-04-25T04:42:16.094Z,1004.02
2019-04-25T04:43:16.319Z,1004.02
2019-04-25T04:44:15.652Z,1004.06
2019-04-25T04:45:15.757Z,1004.09
2019-04-25T04:46:17.115Z,1004.09
2019-04-25T04:47:15.503Z,1004.14
2019-04-25T04:48:15.552Z,1004.15
2019-04-25T04:49:15.346Z,1004.13
2019-04-25T04:50:15.413Z,1004.18
2019-04-25T04:51:15.765Z,1004.19
2019-04-25T04:52:15.841Z,1004.16
2019-04-25T04:53:16.032Z,1004.21
2019-04-25T04:54:15.508Z,1004.19
2019-04-25T04:55:17.250Z,1004.25
2019-04-25T04:56:16.253Z,1004.30
2019-04-25T04:57:26.545Z,1004.37
2019-04-25T04:58:17.218Z,1004.36
2019-04-25T04:59:15.490Z,1004.40
2019-04-25T05:00:15.621Z,1004.37
2019-04-25T05:01:15.686Z,1004.35
2019-04-25T05:02:16.530Z,1004.35
2019-04-25T05:03:15.793Z,1004.35
2019-04-25T05:04:16.052Z,1004.40
2019-04-25T05:05:15.944Z,1004.44
2019-04-25T05:06:15.968Z,1004.46
2019-04-25T05:07:16.215Z,1004.45
2019-04-25T05:08:16.150Z,1004.49
2019-04-25T05:09:15.619Z,1004.48
2019-04-25T05:10:17.713Z,1004.50
2019-04-25T05:11:15.824Z,1004.50
2019-04-25T05:12:15.285Z,1004.51
2019-04-25T05:13:16.489Z,1004.51
2019-04-25T05:14:16.143Z,1004.52
2019-04-25T05:15:16.555Z,1004.47
2019-04-25T05:16:15.360Z,1004.46
2019-04-25T05:17:15.449Z,1004.44
2019-04-25T05:18:17.125Z,1004.52
2019-04-25T05:19:16.828Z,1004.56
2019-04-25T05:20:16.392Z,1004.62
2019-04-25T05:21:15.773Z,1004.60
2019-04-25T05:22:15.686Z,1004.59
2019-04-25T05:23:15.891Z,1004.65
2019-04-25T05:24:16.092Z,1004.61
2019-04-25T05:25:16.359Z,1004.65
2019-04-25T05:26:16.017Z,1004.66
2019-04-25T05:27:16.719Z,1004.68
2019-04-25T05:28:17.310Z,1004.73
2019-04-25T05:29:19.611Z,1004.75
2019-04-25T05:30:16.724Z,1004.76
2019-04-25T05:31:16.760Z,1004.77
2019-04-25T05:32:15.793Z,1004.74
2019-04-25T05:33:18.397Z,1004.84
2019-04-25T05:34:17.191Z,1004.85
2019-04-25T05:35:15.429Z,1004.84
2019-04-25T05:36:15.475Z,1004.89
2019-04-25T05:37:15.533Z,1004.92
2019-04-25T05:38:15.427Z,1004.90
2019-04-25T05:39:16.727Z,1004.89
2019-04-25T05:40:15.793Z,1004.95
2019-04-25T05:41:15.696Z,1004.99
2019-04-25T05:42:16.257Z,1005.02
2019-04-25T05:43:15.130Z,1005.00
2019-04-25T05:44:15.720Z,1004.98
2019-04-25T05:45:16.025Z,1005.02
2019-04-25T05:46:15.339Z,1004.97
2019-04-25T05:47:15.891Z,1005.03
2019-04-25T05:48:15.961Z,1005.08
2019-04-25T05:49:15.518Z,1005.10
2019-04-25T05:50:15.687Z,1005.13
2019-04-25T05:51:15.741Z,1005.16
2019-04-25T05:52:15.966Z,1005.11
2019-04-25T05:53:14.467Z,1005.17
2019-04-25T05:54:14.459Z,1005.15
2019-04-25T05:55:17.319Z,1005.22
2019-04-25T05:56:14.458Z,1005.19
2019-04-25T05:57:14.435Z,1005.21
2019-04-25T05:58:14.452Z,1005.17
2019-04-25T05:59:14.580Z,1005.14
2019-04-25T06:00:15.107Z,1005.11
2019-04-25T06:01:14.409Z,1005.13
2019-04-25T06:02:14.380Z,1005.16
2019-04-25T06:03:14.363Z,1005.10
2019-04-25T06:04:14.393Z,1005.13
2019-04-25T06:05:14.745Z,1005.15
2019-04-25T06:06:14.325Z,1005.16
2019-04-25T06:07:14.509Z,1005.19
2019-04-25T06:08:14.306Z,1005.29
2019-04-25T06:09:14.360Z,1005.29
2019-04-25T06:10:14.518Z,1005.29
2019-04-25T06:11:14.274Z,1005.29
2019-04-25T06:12:14.284Z,1005.33
2019-04-25T06:13:14.269Z,1005.33
2019-04-25T06:14:14.247Z,1005.34
2019-04-25T06:15:14.242Z,1005.38
2019-04-25T06:16:14.209Z,1005.40
2019-04-25T06:17:14.226Z,1005.36
2019-04-25T06:18:14.186Z,1005.38
2019-04-25T06:19:18.488Z,1005.39
2019-04-25T06:20:15.170Z,1005.39
2019-04-25T06:21:14.160Z,1005.36
2019-04-25T06:22:15.186Z,1005.37
2019-04-25T06:23:14.191Z,1005.37
2019-04-25T06:24:14.217Z,1005.38
2019-04-25T06:25:16.449Z,1005.37
2019-04-25T06:26:22.884Z,1005.43
2019-04-25T06:27:15.117Z,1005.43
2019-04-25T06:28:14.087Z,1005.45
2019-04-25T06:29:14.078Z,1005.49
2019-04-25T06:30:15.748Z,1005.52
2019-04-25T06:31:14.220Z,1005.53
2019-04-25T06:32:14.279Z,1005.58
2019-04-25T06:33:14.027Z,1005.63
2019-04-25T06:34:14.174Z,1005.63
2019-04-25T06:35:14.384Z,1005.69
2019-04-25T06:36:14.081Z,1005.67
2019-04-25T06:37:14.033Z,1005.70
2019-04-25T06:38:14.036Z,1005.63
2019-04-25T06:39:14.264Z,1005.68
2019-04-25T06:40:13.943Z,1005.65
2019-04-25T06:41:14.113Z,1005.62
2019-04-25T06:42:13.938Z,1005.67
2019-04-25T06:43:13.919Z,1005.64
2019-04-25T06:44:13.895Z,1005.70
2019-04-25T06:45:13.927Z,1005.64
2019-04-25T06:46:14.187Z,1005.71
2019-04-25T06:47:15.098Z,1005.67
2019-04-25T06:48:14.040Z,1005.64
2019-04-25T06:49:13.865Z,1005.68
2019-04-25T06:50:15.702Z,1005.68
2019-04-25T06:51:13.823Z,1005.66
2019-04-25T06:52:13.952Z,1005.62
2019-04-25T06:53:13.861Z,1005.64
2019-04-25T06:54:13.786Z,1005.63
2019-04-25T06:55:14.152Z,1005.63
2019-04-25T06:56:13.842Z,1005.68
2019-04-25T06:57:14.180Z,1005.70
2019-04-25T06:58:14.541Z,1005.72
2019-04-25T06:59:13.921Z,1005.69
2019-04-25T07:00:14.148Z,1005.70
2019-04-25T07:01:13.731Z,1005.73
2019-04-25T07:02:14.068Z,1005.76
2019-04-25T07:03:13.984Z,1005.73
2019-04-25T07:04:14.144Z,1005.76
2019-04-25T07:05:25.841Z,1005.80
2019-04-25T07:06:14.881Z,1005.75
2019-04-25T07:07:15.012Z,1005.76
2019-04-25T07:08:13.630Z,1005.80
2019-04-25T07:09:14.665Z,1005.78
2019-04-25T07:10:13.609Z,1005.86
2019-04-25T07:11:14.070Z,1005.82
2019-04-25T07:12:13.655Z,1005.85
2019-04-25T07:13:14.256Z,1005.86
2019-04-25T07:14:14.232Z,1005.88
2019-04-25T07:15:13.860Z,1005.89
2019-04-25T07:16:13.582Z,1005.88
2019-04-25T07:17:14.275Z,1005.90
2019-04-25T07:18:14.038Z,1005.94
2019-04-25T07:19:14.395Z,1005.95
2019-04-25T07:20:13.889Z,1005.94
2019-04-25T07:21:14.234Z,1005.99
2019-04-25T07:22:13.929Z,1005.98
2019-04-25T07:23:13.657Z,1005.99
2019-04-25T07:24:14.233Z,1006.05
2019-04-25T07:25:13.489Z,1006.06
2019-04-25T07:26:13.571Z,1006.02
2019-04-25T07:27:13.798Z,1006.05
2019-04-25T07:28:23.899Z,1006.02
2019-04-25T07:29:14.400Z,1006.04
2019-04-25T07:30:13.580Z,1006.02
2019-04-25T07:31:13.462Z,1006.05
2019-04-25T07:32:14.447Z,1006.03
2019-04-25T07:33:13.803Z,1006.11
2019-04-25T07:34:13.391Z,1006.10
2019-04-25T07:35:13.572Z,1006.09
2019-04-25T07:36:13.907Z,1006.08
2019-04-25T07:37:13.357Z,1006.12
2019-04-25T07:38:14.086Z,1006.12
2019-04-25T07:39:13.531Z,1006.12
2019-04-25T07:40:13.946Z,1006.13
2019-04-25T07:41:14.768Z,1006.16
2019-04-25T07:42:14.059Z,1006.18
2019-04-25T07:43:13.476Z,1006.15
2019-04-25T07:44:14.717Z,1006.18
2019-04-25T07:45:14.066Z,1006.22
2019-04-25T07:46:13.530Z,1006.20
2019-04-25T07:47:13.666Z,1006.28
2019-04-25T07:48:13.962Z,1006.26
2019-04-25T07:49:13.561Z,1006.23
2019-04-25T07:50:13.928Z,1006.27
2019-04-25T07:51:16.285Z,1006.27
2019-04-25T07:52:13.601Z,1006.23
2019-04-25T07:53:14.227Z,1006.30
2019-04-25T07:54:14.308Z,1006.27
2019-04-25T07:55:13.755Z,1006.32
2019-04-25T07:56:14.208Z,1006.29
2019-04-25T07:57:13.552Z,1006.30
2019-04-25T07:58:14.334Z,1006.28
2019-04-25T07:59:13.885Z,1006.31
2019-04-25T08:00:13.242Z,1006.35
2019-04-25T08:01:13.987Z,1006.32
2019-04-25T08:02:13.429Z,1006.32
2019-04-25T08:03:13.799Z,1006.34
2019-04-25T08:04:13.658Z,1006.32
2019-04-25T08:05:14.405Z,1006.36
2019-04-25T08:06:13.793Z,1006.32
2019-04-25T08:07:14.267Z,1006.34
2019-04-25T08:08:13.595Z,1006.33
2019-04-25T08:09:14.229Z,1006.42
2019-04-25T08:10:14.004Z,1006.36
2019-04-25T08:11:14.099Z,1006.35
2019-04-25T08:12:13.307Z,1006.38
2019-04-25T08:13:13.335Z,1006.42
2019-04-25T08:14:14.399Z,1006.42
2019-04-25T08:15:13.913Z,1006.40
2019-04-25T08:16:14.464Z,1006.40
2019-04-25T08:17:14.431Z,1006.37
2019-04-25T08:18:13.937Z,1006.44
2019-04-25T08:19:13.639Z,1006.41
2019-04-25T08:20:13.546Z,1006.39
2019-04-25T08:21:12.862Z,1006.37
2019-04-25T08:22:13.626Z,1006.42
2019-04-25T08:23:13.856Z,1006.39
2019-04-25T08:24:13.941Z,1006.40
2019-04-25T08:25:13.789Z,1006.42
2019-04-25T08:26:14.232Z,1006.47
2019-04-25T08:27:13.311Z,1006.43
2019-04-25T08:28:13.809Z,1006.48
2019-04-25T08:29:13.259Z,1006.50
2019-04-25T08:30:14.036Z,1006.53
2019-04-25T08:31:13.574Z,1006.56
2019-04-25T08:32:14.276Z,1006.50
2019-04-25T08:33:13.902Z,1006.54
2019-04-25T08:34:14.312Z,1006.51
2019-04-25T08:35:13.911Z,1006.54
2019-04-25T08:36:13.678Z,1006.61
2019-04-25T08:37:18.888Z,1006.61
2019-04-25T08:38:13.841Z,1006.64
2019-04-25T08:39:14.372Z,1006.62
2019-04-25T08:40:13.699Z,1006.63
2019-04-25T08:41:14.035Z,1006.67
2019-04-25T08:42:13.039Z,1006.67
2019-04-25T08:43:12.593Z,1006.68
2019-04-25T08:44:14.055Z,1006.69
2019-04-25T08:45:13.298Z,1006.64
2019-04-25T08:46:13.955Z,1006.62
2019-04-25T08:47:14.316Z,1006.63
2019-04-25T08:48:13.602Z,1006.67
2019-04-25T08:49:14.089Z,1006.62
2019-04-25T08:50:26.373Z,1006.62
2019-04-25T08:51:13.568Z,1006.60
2019-04-25T08:52:13.265Z,1006.60
2019-04-25T08:53:13.643Z,1006.63
2019-04-25T08:54:13.650Z,1006.61
2019-04-25T08:55:14.126Z,1006.63
2019-04-25T08:56:13.355Z,1006.62
2019-04-25T08:57:13.857Z,1006.61
2019-04-25T08:58:13.760Z,1006.65
2019-04-25T08:59:14.185Z,1006.61
2019-04-25T09:00:14.229Z,1006.61
2019-04-25T09:01:13.715Z,1006.64
2019-04-25T09:02:13.577Z,1006.68
2019-04-25T09:03:14.273Z,1006.59
2019-04-25T09:04:13.318Z,1006.69
2019-04-25T09:05:14.414Z,1006.70
2019-04-25T09:06:13.252Z,1006.67
2019-04-25T09:07:13.461Z,1006.65
2019-04-25T09:08:14.165Z,1006.67
2019-04-25T09:09:13.681Z,1006.70
2019-04-25T09:10:13.774Z,1006.67
2019-04-25T09:11:13.359Z,1006.63
2019-04-25T09:12:13.937Z,1006.63
2019-04-25T09:13:13.474Z,1006.65
2019-04-25T09:14:13.465Z,1006.62
2019-04-25T09:15:13.943Z,1006.68
2019-04-25T09:16:13.529Z,1006.70
2019-04-25T09:17:12.258Z,1006.69
2019-04-25T09:18:14.008Z,1006.70
2019-04-25T09:19:12.177Z,1006.69
2019-04-25T09:20:13.830Z,1006.67
2019-04-25T09:21:13.651Z,1006.70
2019-04-25T09:22:13.273Z,1006.67
2019-04-25T09:23:13.579Z,1006.66
2019-04-25T09:24:13.398Z,1006.63
2019-04-25T09:25:13.705Z,1006.61
2019-04-25T09:26:12.100Z,1006.61
2019-04-25T09:27:13.422Z,1006.62
2019-04-25T09:28:12.109Z,1006.62
2019-04-25T09:29:18.835Z,1006.64
2019-04-25T09:30:14.352Z,1006.58
2019-04-25T09:31:13.812Z,1006.59
2019-04-25T09:32:13.688Z,1006.63
2019-04-25T09:33:13.267Z,1006.63
2019-04-25T09:34:12.012Z,1006.64
2019-04-25T09:35:13.570Z,1006.62
2019-04-25T09:36:11.985Z,1006.59
2019-04-25T09:37:11.989Z,1006.59
2019-04-25T09:38:13.313Z,1006.56
2019-04-25T09:39:13.568Z,1006.64
2019-04-25T09:40:11.939Z,1006.68
2019-04-25T09:41:11.938Z,1006.66
2019-04-25T09:42:11.925Z,1006.66
2019-04-25T09:43:13.529Z,1006.59
2019-04-25T09:44:11.905Z,1006.62
2019-04-25T09:45:13.324Z,1006.59
2019-04-25T09:46:13.263Z,1006.54
2019-04-25T09:47:13.567Z,1006.59
2019-04-25T09:48:13.185Z,1006.57
2019-04-25T09:49:11.845Z,1006.59
2019-04-25T09:50:11.818Z,1006.55
2019-04-25T09:51:13.502Z,1006.51
2019-04-25T09:52:13.279Z,1006.52
2019-04-25T09:53:21.880Z,1006.49
2019-04-25T09:54:13.161Z,1006.53
2019-04-25T09:55:13.185Z,1006.59
2019-04-25T09:56:11.786Z,1006.58
2019-04-25T09:57:13.441Z,1006.59
2019-04-25T09:58:11.774Z,1006.56
2019-04-25T09:59:11.724Z,1006.59
2019-04-25T10:00:13.189Z,1006.67
2019-04-25T10:01:11.722Z,1006.67
2019-04-25T10:02:11.703Z,1006.60
2019-04-25T10:03:13.445Z,1006.58
2019-04-25T10:04:11.669Z,1006.50
2019-04-25T10:05:11.683Z,1006.51
2019-04-25T10:06:13.290Z,1006.49
2019-04-25T10:07:11.638Z,1006.54
2019-04-25T10:08:13.379Z,1006.43
2019-04-25T10:09:11.612Z,1006.44
2019-04-25T10:10:11.611Z,1006.43
2019-04-25T10:11:11.644Z,1006.42
2019-04-25T10:12:12.974Z,1006.47
2019-04-25T10:13:11.569Z,1006.48
2019-04-25T10:14:11.611Z,1006.46
2019-04-25T10:15:11.554Z,1006.38
2019-04-25T10:16:11.542Z,1006.41
2019-04-25T10:17:11.573Z,1006.36
2019-04-25T10:18:14.121Z,1006.34
2019-04-25T10:19:12.964Z,1006.33
2019-04-25T10:20:14.446Z,1006.36
2019-04-25T10:21:11.479Z,1006.35
2019-04-25T10:22:11.488Z,1006.39
2019-04-25T10:23:11.460Z,1006.35
2019-04-25T10:24:11.472Z,1006.40
2019-04-25T10:25:11.435Z,1006.37
2019-04-25T10:26:11.435Z,1006.39
2019-04-25T10:27:11.450Z,1006.44
2019-04-25T10:28:12.889Z,1006.43
2019-04-25T10:29:11.423Z,1006.40
2019-04-25T10:30:17.663Z,1006.41
2019-04-25T10:31:13.629Z,1006.42
2019-04-25T10:32:13.045Z,1006.43
2019-04-25T10:33:11.354Z,1006.44
2019-04-25T10:34:11.359Z,1006.42
2019-04-25T10:35:11.334Z,1006.44
2019-04-25T10:36:11.401Z,1006.42
2019-04-25T10:37:11.339Z,1006.37
2019-04-25T10:38:11.305Z,1006.42
2019-04-25T10:39:11.538Z,1006.40
2019-04-25T10:40:11.285Z,1006.37
2019-04-25T10:41:11.261Z,1006.39
2019-04-25T10:42:11.247Z,1006.38
2019-04-25T10:43:11.236Z,1006.40
2019-04-25T10:44:11.331Z,1006.29
2019-04-25T10:45:22.890Z,1006.30
2019-04-25T10:46:13.986Z,1006.29
2019-04-25T10:47:11.200Z,1006.30
2019-04-25T10:48:11.188Z,1006.30
2019-04-25T10:49:11.285Z,1006.32
2019-04-25T10:50:11.197Z,1006.27
2019-04-25T10:51:11.170Z,1006.27
2019-04-25T10:52:11.152Z,1006.19
2019-04-25T10:53:11.130Z,1006.20
2019-04-25T10:54:11.126Z,1006.17
2019-04-25T10:55:11.126Z,1006.19
2019-04-25T10:56:11.092Z,1006.13
2019-04-25T10:57:11.246Z,1006.15
2019-04-25T10:58:11.074Z,1006.15
2019-04-25T10:59:11.065Z,1006.13
2019-04-25T11:00:11.072Z,1006.08
2019-04-25T11:01:11.049Z,1006.10
2019-04-25T11:02:11.031Z,1006.10
2019-04-25T11:03:11.028Z,1006.12
2019-04-25T11:04:11.021Z,1006.16
2019-04-25T11:05:11.025Z,1006.12
2019-04-25T11:06:10.995Z,1006.16
2019-04-25T11:07:10.983Z,1006.14
2019-04-25T11:08:10.977Z,1006.14
2019-04-25T11:09:10.969Z,1006.11
2019-04-25T11:10:10.967Z,1006.07
2019-04-25T11:11:10.931Z,1006.08
2019-04-25T11:12:11.359Z,1006.08
2019-04-25T11:13:10.918Z,1006.10
2019-04-25T11:14:10.901Z,1006.09
2019-04-25T11:15:11.137Z,1006.10
2019-04-25T11:16:10.884Z,1006.09
2019-04-25T11:17:10.872Z,1006.02
2019-04-25T11:18:10.858Z,1006.04
2019-04-25T11:19:10.881Z,1005.97
2019-04-25T11:20:10.875Z,1006.05
2019-04-25T11:21:10.830Z,1006.06
2019-04-25T11:22:10.820Z,1005.99
2019-04-25T11:23:10.813Z,1006.02
2019-04-25T11:24:10.791Z,1006.01
2019-04-25T11:25:10.816Z,1005.97
2019-04-25T11:26:10.784Z,1006.00
2019-04-25T11:27:10.789Z,1006.04
2019-04-25T11:28:10.750Z,1005.98
2019-04-25T11:29:10.752Z,1006.02
2019-04-25T11:30:11.558Z,1006.00
2019-04-25T11:31:10.727Z,1006.01
2019-04-25T11:32:10.711Z,1006.01
2019-04-25T11:33:10.717Z,1006.01
2019-04-25T11:34:10.916Z,1005.91
2019-04-25T11:35:10.682Z,1005.89
2019-04-25T11:36:10.658Z,1005.90
2019-04-25T11:37:10.675Z,1005.97
2019-04-25T11:38:10.657Z,1005.94
2019-04-25T11:39:10.642Z,1005.94
2019-04-25T11:40:10.671Z,1005.98
2019-04-25T11:41:10.634Z,1005.86
2019-04-25T11:42:10.603Z,1005.92
2019-04-25T11:43:10.603Z,1005.93
2019-04-25T11:44:10.577Z,1005.92
2019-04-25T11:45:10.621Z,1005.89
2019-04-25T11:46:10.569Z,1005.87
2019-04-25T11:47:11.227Z,1005.87
2019-04-25T11:48:10.533Z,1005.87
2019-04-25T11:49:10.658Z,1005.86
2019-04-25T11:50:10.587Z,1005.89
2019-04-25T11:51:10.512Z,1005.84
2019-04-25T11:52:10.508Z,1005.81
2019-04-25T11:53:10.491Z,1005.93
2019-04-25T11:54:10.465Z,1005.87
2019-04-25T11:55:10.506Z,1005.90
2019-04-25T11:56:10.473Z,1005.87
2019-04-25T11:57:10.433Z,1005.87
2019-04-25T11:58:10.423Z,1005.87
2019-04-25T11:59:10.442Z,1005.90
2019-04-25T12:00:21.458Z,1005.91
2019-04-25T12:01:11.394Z,1005.84
2019-04-25T12:02:10.383Z,1005.84
2019-04-25T12:03:10.368Z,1005.80
2019-04-25T12:04:10.370Z,1005.81
2019-04-25T12:05:10.377Z,1005.84